createdAt,value
2023-05-05T00:01:33.546Z,8.51
2023-05-05T00:04:00.643Z,8.41
2023-05-05T00:06:31.515Z,8.19
2023-05-05T00:08:58.615Z,8.29
2023-05-05T00:11:28.544Z,8.26
2023-05-05T00:13:55.506Z,8.23
2023-05-05T00:16:23.686Z,8.19
2023-05-05T00:18:51.083Z,8.10
2023-05-05T00:21:17.938Z,8.13
2023-05-05T00:23:45.133Z,8.06
2023-05-05T00:26:13.466Z,8.07
2023-05-05T00:28:40.455Z,7.99
2023-05-05T00:31:07.828Z,8.02
2023-05-05T00:33:35.084Z,7.97
2023-05-05T00:36:02.122Z,7.99
2023-05-05T00:38:29.132Z,7.91
2023-05-05T00:40:56.066Z,7.79
2023-05-05T00:43:22.930Z,7.88
2023-05-05T00:45:59.968Z,7.82
2023-05-05T00:48:28.904Z,7.78
2023-05-05T00:50:56.002Z,7.77
2023-05-05T00:53:23.485Z,7.75
2023-05-05T00:55:51.393Z,7.76
2023-05-05T00:58:21.225Z,7.71
2023-05-05T01:00:49.098Z,7.71
2023-05-05T01:03:16.075Z,7.64
2023-05-05T01:06:06.447Z,7.65
2023-05-05T01:08:47.142Z,7.65
2023-05-05T01:11:26.851Z,7.61
2023-05-05T01:14:07.504Z,7.53
2023-05-05T01:16:37.292Z,7.50
2023-05-05T01:19:15.829Z,7.48
2023-05-05T01:21:57.475Z,7.43
2023-05-05T01:24:50.384Z,7.41
2023-05-05T01:27:45.140Z,7.44
2023-05-05T01:30:17.730Z,7.37
2023-05-05T01:32:51.415Z,7.37
2023-05-05T01:35:20.964Z,7.37
2023-05-05T01:38:15.201Z,7.40
2023-05-05T01:41:11.257Z,7.38
2023-05-05T01:43:40.102Z,7.34
2023-05-05T01:46:09.136Z,7.32
2023-05-05T01:48:37.448Z,7.37
2023-05-05T01:51:06.719Z,7.19
2023-05-05T01:53:34.755Z,7.31
2023-05-05T01:56:03.045Z,7.28
2023-05-05T01:58:31.178Z,7.21
2023-05-05T02:00:58.766Z,7.22
2023-05-05T02:03:27.704Z,7.16
2023-05-05T02:05:55.726Z,7.15
2023-05-05T02:08:23.998Z,7.10
2023-05-05T02:10:52.252Z,7.12
2023-05-05T02:13:22.206Z,7.07
2023-05-05T02:15:51.218Z,7.02
2023-05-05T02:18:19.675Z,6.99
2023-05-05T02:20:47.296Z,6.90
2023-05-05T02:23:14.332Z,7.02
2023-05-05T02:25:44.607Z,6.94
2023-05-05T02:28:21.351Z,6.91
2023-05-05T02:30:56.113Z,6.84
2023-05-05T02:33:25.744Z,6.93
2023-05-05T02:35:54.804Z,6.89
2023-05-05T02:38:26.525Z,6.88
2023-05-05T02:40:57.918Z,6.81
2023-05-05T02:43:26.269Z,6.76
2023-05-05T02:45:53.308Z,6.74
2023-05-05T02:48:20.376Z,6.70
2023-05-05T02:50:47.205Z,6.66
2023-05-05T02:53:14.336Z,6.54
2023-05-05T02:56:05.905Z,6.63
2023-05-05T02:58:54.948Z,6.66
2023-05-05T03:01:40.013Z,6.62
2023-05-05T03:04:10.569Z,6.58
2023-05-05T03:06:42.709Z,6.62
2023-05-05T03:09:32.648Z,6.63
2023-05-05T03:12:03.967Z,6.62
2023-05-05T03:14:37.024Z,6.68
2023-05-05T03:17:05.536Z,6.62
2023-05-05T03:19:32.574Z,6.67
2023-05-05T03:21:59.719Z,6.72
2023-05-05T03:24:26.526Z,6.62
2023-05-05T03:29:41.405Z,6.62
2023-05-05T03:32:08.429Z,6.74
2023-05-05T03:34:37.681Z,6.74
2023-05-05T03:37:04.809Z,6.76
2023-05-05T03:39:31.767Z,6.77
2023-05-05T03:41:58.658Z,6.82
2023-05-05T03:44:25.566Z,6.84
2023-05-05T03:46:52.473Z,6.88
2023-05-05T03:49:19.292Z,6.91
2023-05-05T03:51:47.601Z,6.92
2023-05-05T03:54:15.164Z,6.91
2023-05-05T03:56:42.243Z,6.93
2023-05-05T03:59:10.348Z,6.94
2023-05-05T04:01:37.474Z,6.78
2023-05-05T04:04:04.893Z,6.93
2023-05-05T04:06:32.406Z,6.95
2023-05-05T04:08:59.482Z,6.93
2023-05-05T04:11:26.400Z,6.86
2023-05-05T04:13:53.388Z,6.84
2023-05-05T04:16:20.419Z,6.95
2023-05-05T04:18:47.867Z,6.94
2023-05-05T04:21:15.142Z,6.98
2023-05-05T04:23:42.078Z,6.93
2023-05-05T04:26:08.977Z,6.96
2023-05-05T04:28:36.025Z,6.96
2023-05-05T04:31:05.277Z,7.01
2023-05-05T04:33:32.450Z,7.06
2023-05-05T04:35:59.253Z,7.11
2023-05-05T04:38:26.297Z,7.15
2023-05-05T04:40:53.348Z,7.22
2023-05-05T04:43:20.397Z,7.52
2023-05-05T04:45:56.224Z,8.06
2023-05-05T04:48:23.196Z,8.41
2023-05-05T04:50:52.704Z,8.30
2023-05-05T04:53:19.826Z,8.30
2023-05-05T04:55:46.873Z,9.03
2023-05-05T04:58:14.032Z,9.82
2023-05-05T05:00:41.195Z,9.83
2023-05-05T05:03:08.711Z,9.85
2023-05-05T05:05:35.824Z,9.59
2023-05-05T05:08:02.835Z,9.61
2023-05-05T05:10:30.209Z,9.70
2023-05-05T05:12:57.151Z,9.29
2023-05-05T05:15:24.261Z,9.03
2023-05-05T05:17:51.341Z,8.91
2023-05-05T05:20:21.131Z,8.62
2023-05-05T05:22:48.095Z,8.47
2023-05-05T05:25:15.500Z,8.38
2023-05-05T05:27:42.530Z,8.82
2023-05-05T05:30:10.134Z,9.39
2023-05-05T05:32:37.259Z,9.98
2023-05-05T05:35:04.596Z,10.88
2023-05-05T05:37:31.785Z,12.14
2023-05-05T05:39:58.880Z,11.88
2023-05-05T05:42:26.239Z,12.75
2023-05-05T05:44:53.355Z,13.60
2023-05-05T05:47:20.232Z,13.53
2023-05-05T05:49:47.100Z,12.36
2023-05-05T05:52:14.554Z,13.78
2023-05-05T05:54:41.547Z,14.54
2023-05-05T05:57:08.608Z,15.88
2023-05-05T05:59:35.604Z,16.31
2023-05-05T06:02:04.744Z,16.14
2023-05-05T06:04:31.925Z,17.01
2023-05-05T06:07:02.196Z,17.89
2023-05-05T06:09:29.239Z,18.40
2023-05-05T06:11:56.234Z,16.55
2023-05-05T06:14:23.283Z,14.83
2023-05-05T06:16:50.987Z,13.71
2023-05-05T06:19:18.186Z,13.16
2023-05-05T06:21:45.148Z,13.26
2023-05-05T06:24:12.314Z,13.09
2023-05-05T06:26:39.275Z,15.32
2023-05-05T06:29:06.359Z,14.63
2023-05-05T06:31:33.313Z,15.14
2023-05-05T06:34:00.351Z,15.56
2023-05-05T06:36:28.454Z,16.39
2023-05-05T06:38:55.537Z,17.18
2023-05-05T06:41:22.715Z,16.88
2023-05-05T06:43:49.763Z,17.02
2023-05-05T06:46:16.857Z,16.21
2023-05-05T06:48:44.051Z,16.55
2023-05-05T06:51:10.934Z,16.20
2023-05-05T06:53:37.946Z,15.58
2023-05-05T06:56:05.327Z,15.30
2023-05-05T06:58:32.403Z,14.35
2023-05-05T07:00:59.358Z,13.86
2023-05-05T07:03:28.394Z,14.06
2023-05-05T07:05:55.682Z,13.49
2023-05-05T07:08:22.719Z,13.14
2023-05-05T07:10:50.012Z,13.00
2023-05-05T07:13:17.763Z,12.95
2023-05-05T07:15:46.808Z,12.53
2023-05-05T07:18:16.301Z,12.92
2023-05-05T07:20:44.577Z,13.23
2023-05-05T07:23:11.499Z,13.29
2023-05-05T07:25:39.005Z,13.60
2023-05-05T07:28:06.143Z,13.55
2023-05-05T07:30:33.027Z,13.91
2023-05-05T07:33:00.003Z,14.42
2023-05-05T07:35:28.013Z,13.96
2023-05-05T07:37:54.944Z,13.76
2023-05-05T07:40:22.141Z,13.36
2023-05-05T07:42:49.152Z,13.71
2023-05-05T07:45:16.222Z,13.88
2023-05-05T07:47:43.157Z,14.04
2023-05-05T07:50:10.764Z,14.06
2023-05-05T07:52:48.218Z,14.19
2023-05-05T07:55:20.928Z,14.59
2023-05-05T07:57:48.128Z,14.59
2023-05-05T08:00:15.616Z,14.93
2023-05-05T08:02:42.724Z,15.49
2023-05-05T08:05:10.063Z,15.39
2023-05-05T08:07:41.620Z,15.73
2023-05-05T08:10:11.279Z,15.98
2023-05-05T08:12:38.545Z,16.25
2023-05-05T08:15:06.461Z,17.63
2023-05-05T08:17:53.171Z,17.23
2023-05-05T08:20:21.314Z,17.08
2023-05-05T08:22:48.706Z,16.55
2023-05-05T08:25:16.050Z,15.93
2023-05-05T08:27:43.465Z,15.52
2023-05-05T08:30:11.058Z,15.54
2023-05-05T08:32:38.777Z,16.40
2023-05-05T08:35:06.851Z,16.26
2023-05-05T08:37:34.440Z,17.09
2023-05-05T08:40:01.701Z,17.59
2023-05-05T08:42:37.894Z,17.39
2023-05-05T08:45:07.165Z,17.32
2023-05-05T08:47:35.828Z,18.63
2023-05-05T08:50:03.492Z,21.04
2023-05-05T08:52:40.209Z,22.52
2023-05-05T08:55:26.985Z,22.63
2023-05-05T08:57:58.228Z,21.67
2023-05-05T09:00:29.350Z,20.72
2023-05-05T09:03:01.790Z,20.29
2023-05-05T09:05:29.070Z,18.04
2023-05-05T09:07:56.152Z,16.73
2023-05-05T09:10:25.629Z,17.82
2023-05-05T09:12:52.909Z,17.38
2023-05-05T09:15:20.039Z,16.14
2023-05-05T09:17:47.568Z,16.46
2023-05-05T09:20:15.322Z,16.65
2023-05-05T09:22:44.511Z,17.17
2023-05-05T09:25:18.665Z,17.16
2023-05-05T09:27:48.615Z,16.37
2023-05-05T09:30:26.416Z,16.21
2023-05-05T09:32:55.080Z,15.37
2023-05-05T09:35:23.483Z,14.73
2023-05-05T09:37:50.656Z,14.71
2023-05-05T09:40:19.759Z,14.50
2023-05-05T09:42:47.647Z,14.22
2023-05-05T09:45:20.412Z,14.22
2023-05-05T09:47:48.335Z,13.95
2023-05-05T09:50:18.630Z,14.19
2023-05-05T09:53:03.089Z,14.10
2023-05-05T09:55:33.208Z,13.97
2023-05-05T09:58:28.487Z,14.00
2023-05-05T10:00:56.801Z,13.94
2023-05-05T10:03:24.435Z,13.81
2023-05-05T10:06:01.424Z,13.74
2023-05-05T10:08:34.488Z,13.83
2023-05-05T10:11:07.389Z,13.85
2023-05-05T10:13:37.961Z,14.38
2023-05-05T10:16:08.727Z,14.40
2023-05-05T10:18:37.167Z,14.51
2023-05-05T10:21:04.534Z,14.81
2023-05-05T10:23:49.489Z,15.02
2023-05-05T10:26:20.042Z,15.22
2023-05-05T10:28:58.227Z,15.45
2023-05-05T10:31:30.338Z,15.60
2023-05-05T10:34:06.361Z,15.77
2023-05-05T10:36:34.512Z,15.75
2023-05-05T10:39:02.840Z,15.45
2023-05-05T10:41:31.660Z,15.63
2023-05-05T10:44:01.383Z,15.60
2023-05-05T10:46:30.406Z,15.71
2023-05-05T10:49:35.894Z,16.06
2023-05-05T10:52:23.885Z,17.83
2023-05-05T10:55:13.548Z,18.26
2023-05-05T10:57:42.926Z,17.78
2023-05-05T11:00:11.605Z,18.62
2023-05-05T11:02:40.468Z,17.16
2023-05-05T11:05:15.386Z,17.74
2023-05-05T11:07:43.816Z,17.77
2023-05-05T11:10:13.302Z,17.09
2023-05-05T11:12:52.732Z,17.05
2023-05-05T11:15:31.816Z,16.92
2023-05-05T11:18:07.331Z,16.81
2023-05-05T11:20:40.030Z,17.17
2023-05-05T11:23:07.286Z,17.81
2023-05-05T11:25:41.239Z,17.74
2023-05-05T11:28:08.651Z,17.68
2023-05-05T11:30:59.769Z,17.59
2023-05-05T11:33:37.860Z,17.12
2023-05-05T11:36:10.066Z,17.09
2023-05-05T11:38:40.184Z,17.12
2023-05-05T11:41:10.284Z,16.76
2023-05-05T11:43:37.399Z,16.80
2023-05-05T11:46:16.103Z,16.71
2023-05-05T11:48:51.802Z,16.57
2023-05-05T11:51:19.523Z,16.57
2023-05-05T11:53:49.207Z,16.57
2023-05-05T11:56:22.204Z,16.54
2023-05-05T11:58:49.940Z,16.59
2023-05-05T12:01:17.064Z,16.82
2023-05-05T12:03:46.068Z,17.23
2023-05-05T12:06:13.685Z,17.22
2023-05-05T12:08:42.100Z,17.40
2023-05-05T12:11:10.866Z,17.51
2023-05-05T12:13:37.915Z,17.80
2023-05-05T12:16:12.393Z,18.20
2023-05-05T12:18:40.625Z,18.20
2023-05-05T12:21:20.649Z,17.93
2023-05-05T12:23:47.864Z,17.13
2023-05-05T12:26:29.367Z,17.20
2023-05-05T12:29:00.714Z,17.75
2023-05-05T12:31:41.995Z,18.12
2023-05-05T12:34:10.578Z,19.41
2023-05-05T12:36:38.376Z,19.73
2023-05-05T12:39:05.830Z,20.27
2023-05-05T12:41:33.530Z,19.71
2023-05-05T12:44:02.064Z,19.18
2023-05-05T12:46:30.158Z,19.03
2023-05-05T12:49:01.776Z,18.73
2023-05-05T12:51:28.761Z,18.23
2023-05-05T12:54:12.525Z,17.55
2023-05-05T12:56:44.994Z,17.33
2023-05-05T12:59:33.224Z,17.06
2023-05-05T13:02:04.634Z,16.85
2023-05-05T13:04:31.889Z,17.39
2023-05-05T13:07:11.905Z,17.72
2023-05-05T13:09:39.516Z,17.36
2023-05-05T13:12:08.874Z,17.73
2023-05-05T13:14:36.756Z,17.68
2023-05-05T13:17:03.637Z,18.07
2023-05-05T13:19:30.880Z,18.06
2023-05-05T13:21:58.879Z,18.11
2023-05-05T13:24:38.099Z,18.86
2023-05-05T13:27:06.220Z,18.94
2023-05-05T13:29:33.874Z,18.66
2023-05-05T13:32:01.239Z,18.38
2023-05-05T13:34:28.493Z,18.82
2023-05-05T13:36:55.665Z,18.90
2023-05-05T13:39:22.815Z,18.56
2023-05-05T13:41:49.862Z,18.14
2023-05-05T13:44:17.269Z,18.45
2023-05-05T13:46:44.681Z,18.57
2023-05-05T13:49:11.733Z,18.02
2023-05-05T13:51:39.372Z,17.75
2023-05-05T13:54:07.568Z,17.77
2023-05-05T13:56:35.256Z,18.19
2023-05-05T13:59:02.708Z,17.74
2023-05-05T14:01:30.681Z,17.77
2023-05-05T14:03:58.392Z,17.24
2023-05-05T14:06:26.145Z,17.45
2023-05-05T14:08:53.371Z,17.46
2023-05-05T14:11:23.299Z,17.38
2023-05-05T14:13:50.283Z,17.58
2023-05-05T14:16:17.165Z,17.49
2023-05-05T14:18:44.051Z,17.76
2023-05-05T14:21:11.659Z,17.96
2023-05-05T14:23:38.453Z,17.52
2023-05-05T14:26:05.749Z,17.53
2023-05-05T14:28:32.692Z,17.72
2023-05-05T14:30:59.691Z,18.01
2023-05-05T14:33:26.825Z,18.26
2023-05-05T14:35:53.721Z,18.16
2023-05-05T14:38:20.753Z,17.99
2023-05-05T14:40:47.594Z,17.64
2023-05-05T14:43:14.450Z,17.46
2023-05-05T14:45:41.693Z,17.40
2023-05-05T14:48:08.844Z,17.33
2023-05-05T14:50:35.917Z,16.74
2023-05-05T14:53:02.884Z,16.34
2023-05-05T14:55:29.881Z,16.52
2023-05-05T14:57:56.975Z,16.68
2023-05-05T15:00:24.083Z,16.58
2023-05-05T15:02:51.155Z,16.21
2023-05-05T15:05:18.477Z,16.32
2023-05-05T15:07:45.374Z,16.27
2023-05-05T15:10:12.472Z,15.89
2023-05-05T15:12:39.485Z,16.13
2023-05-05T15:15:09.850Z,16.20
2023-05-05T15:17:38.993Z,16.24
2023-05-05T15:20:06.994Z,16.26
2023-05-05T15:22:34.255Z,16.56
2023-05-05T15:25:01.982Z,16.38
2023-05-05T15:27:30.205Z,16.16
2023-05-05T15:29:57.083Z,16.23
2023-05-05T15:32:24.088Z,16.24
2023-05-05T15:34:51.118Z,16.21
2023-05-05T15:37:18.385Z,16.13
2023-05-05T15:39:45.442Z,16.02
2023-05-05T15:42:12.445Z,15.55
2023-05-05T15:44:39.252Z,15.29
2023-05-05T15:47:07.255Z,15.11
2023-05-05T15:49:34.097Z,15.14
2023-05-05T15:52:02.930Z,14.91
2023-05-05T15:54:32.057Z,14.35
2023-05-05T15:56:58.880Z,14.61
2023-05-05T15:59:26.656Z,14.62
2023-05-05T16:01:53.596Z,14.23
2023-05-05T16:04:20.540Z,14.19
2023-05-05T16:06:47.426Z,14.16
2023-05-05T16:09:14.609Z,14.09
2023-05-05T16:11:41.549Z,13.98
2023-05-05T16:14:08.476Z,13.91
2023-05-05T16:16:35.613Z,13.84
2023-05-05T16:19:02.728Z,13.74
2023-05-05T16:21:29.474Z,13.71
2023-05-05T16:23:56.954Z,13.62
2023-05-05T16:26:23.982Z,13.51
2023-05-05T16:28:51.197Z,13.50
2023-05-05T16:31:20.831Z,13.45
2023-05-05T16:33:47.950Z,13.36
2023-05-05T16:36:14.910Z,13.22
2023-05-05T16:38:42.250Z,13.23
2023-05-05T16:41:09.136Z,13.18
2023-05-05T16:43:38.946Z,13.05
2023-05-05T16:46:06.926Z,12.97
2023-05-05T16:48:34.030Z,12.84
2023-05-05T16:51:01.060Z,12.88
2023-05-05T16:53:27.929Z,12.70
2023-05-05T16:55:54.794Z,12.71
2023-05-05T16:58:25.502Z,12.65
2023-05-05T17:00:52.684Z,12.67
2023-05-05T17:03:22.918Z,12.60
2023-05-05T17:05:52.985Z,12.44
2023-05-05T17:08:20.290Z,12.47
2023-05-05T17:10:47.624Z,12.49
2023-05-05T17:13:14.968Z,12.43
2023-05-05T17:15:43.839Z,12.37
2023-05-05T17:18:11.357Z,12.36
2023-05-05T17:20:38.221Z,12.29
2023-05-05T17:23:05.569Z,12.25
2023-05-05T17:25:32.459Z,12.12
2023-05-05T17:27:59.414Z,12.00
2023-05-05T17:30:26.711Z,11.92
2023-05-05T17:32:53.838Z,11.89
2023-05-05T17:35:21.703Z,11.85
2023-05-05T17:37:48.735Z,11.89
2023-05-05T17:40:15.846Z,11.92
2023-05-05T17:42:42.808Z,11.95
2023-05-05T17:45:10.698Z,12.01
2023-05-05T17:47:38.502Z,11.94
2023-05-05T17:50:06.142Z,11.88
2023-05-05T17:52:33.174Z,11.82
2023-05-05T17:54:59.975Z,11.75
2023-05-05T17:57:27.333Z,11.58
2023-05-05T17:59:54.542Z,11.36
2023-05-05T18:02:21.597Z,10.74
2023-05-05T18:04:48.808Z,10.61
2023-05-05T18:07:15.915Z,10.73
2023-05-05T18:09:42.994Z,10.50
2023-05-05T18:12:10.114Z,10.25
2023-05-05T18:14:37.281Z,10.14
2023-05-05T18:17:05.026Z,10.01
2023-05-05T18:19:32.187Z,10.05
2023-05-05T18:21:59.420Z,9.99
2023-05-05T18:24:29.839Z,10.14
2023-05-05T18:26:56.984Z,10.10
2023-05-05T18:29:24.153Z,10.07
2023-05-05T18:31:54.711Z,10.08
2023-05-05T18:34:22.193Z,10.07
2023-05-05T18:36:51.545Z,9.95
2023-05-05T18:39:18.499Z,9.96
2023-05-05T18:41:45.381Z,9.86
2023-05-05T18:44:12.318Z,9.92
2023-05-05T18:46:39.997Z,9.71
2023-05-05T18:49:06.925Z,9.81
2023-05-05T18:51:33.715Z,9.65
2023-05-05T18:54:03.549Z,9.56
2023-05-05T18:56:30.900Z,9.51
2023-05-05T18:58:58.142Z,9.56
2023-05-05T19:01:31.579Z,9.49
2023-05-05T19:03:58.788Z,9.57
2023-05-05T19:06:25.858Z,9.57
2023-05-05T19:08:52.698Z,9.51
2023-05-05T19:11:20.037Z,9.45
2023-05-05T19:13:47.081Z,9.47
2023-05-05T19:16:14.076Z,9.29
2023-05-05T19:18:41.399Z,9.41
2023-05-05T19:21:08.306Z,9.31
2023-05-05T19:23:36.442Z,9.38
2023-05-05T19:26:06.856Z,9.29
2023-05-05T19:28:34.067Z,9.16
2023-05-05T19:31:01.436Z,9.17
2023-05-05T19:33:28.587Z,9.16
2023-05-05T19:35:55.573Z,8.97
2023-05-05T19:38:22.576Z,9.03
2023-05-05T19:40:49.811Z,9.01
2023-05-05T19:43:16.818Z,8.94
2023-05-05T19:45:43.769Z,8.72
2023-05-05T19:48:10.811Z,8.75
2023-05-05T19:50:38.024Z,8.65
2023-05-05T19:53:05.342Z,8.51
2023-05-05T19:55:33.601Z,8.51
2023-05-05T19:58:00.846Z,8.35
2023-05-05T20:00:30.533Z,8.36
2023-05-05T20:02:57.792Z,8.36
2023-05-05T20:05:25.155Z,8.30
2023-05-05T20:07:52.281Z,8.20
2023-05-05T20:10:19.417Z,8.13
2023-05-05T20:12:49.234Z,7.81
2023-05-05T20:15:19.763Z,8.00
2023-05-05T20:17:47.996Z,7.95
2023-05-05T20:20:22.253Z,7.93
2023-05-05T20:22:49.606Z,7.83
2023-05-05T20:25:17.171Z,7.77
2023-05-05T20:27:45.713Z,7.70
2023-05-05T20:30:14.188Z,7.58
2023-05-05T20:32:41.797Z,7.57
2023-05-05T20:35:09.330Z,7.50
2023-05-05T20:37:36.112Z,7.42
2023-05-05T20:40:03.031Z,7.43
2023-05-05T20:42:30.320Z,7.40
2023-05-05T20:44:57.453Z,7.39
2023-05-05T20:47:24.526Z,7.34
2023-05-05T20:49:52.638Z,7.28
2023-05-05T20:52:19.927Z,7.28
2023-05-05T20:54:46.854Z,7.20
2023-05-05T20:57:13.970Z,7.27
2023-05-05T20:59:41.032Z,7.28
2023-05-05T21:02:07.996Z,7.26
2023-05-05T21:04:35.009Z,7.32
2023-05-05T21:07:02.208Z,7.21
2023-05-05T21:09:29.376Z,7.30
2023-05-05T21:11:56.533Z,7.25
2023-05-05T21:14:24.009Z,7.35
2023-05-05T21:16:52.320Z,7.38
2023-05-05T21:19:19.298Z,7.37
2023-05-05T21:21:46.713Z,7.40
2023-05-05T21:24:13.844Z,7.38
2023-05-05T21:26:44.677Z,7.39
2023-05-05T21:29:12.123Z,7.44
2023-05-05T21:31:39.603Z,7.48
2023-05-05T21:34:06.513Z,7.48
2023-05-05T21:36:34.121Z,7.46
2023-05-05T21:39:01.747Z,7.50
2023-05-05T21:41:29.016Z,7.52
2023-05-05T21:43:56.000Z,7.49
2023-05-05T21:46:24.014Z,7.46
2023-05-05T21:48:51.057Z,7.44
2023-05-05T21:51:18.031Z,7.53
2023-05-05T21:53:45.148Z,7.46
2023-05-05T21:56:12.230Z,7.45
2023-05-05T21:58:39.177Z,7.46
2023-05-05T22:01:06.251Z,7.43
2023-05-05T22:03:35.552Z,7.44
2023-05-05T22:06:02.553Z,7.42
2023-05-05T22:08:29.630Z,7.46
2023-05-05T22:10:56.496Z,7.43
2023-05-05T22:13:23.518Z,7.46
2023-05-05T22:15:50.616Z,7.51
2023-05-05T22:18:17.810Z,7.48
2023-05-05T22:20:45.142Z,7.43
2023-05-05T22:23:12.081Z,7.37
2023-05-05T22:25:38.963Z,7.43
2023-05-05T22:28:05.838Z,7.36
2023-05-05T22:30:32.808Z,7.37
2023-05-05T22:33:02.755Z,7.35
2023-05-05T22:35:29.991Z,7.31
2023-05-05T22:37:57.091Z,7.40
2023-05-05T22:40:24.208Z,7.34
2023-05-05T22:42:51.245Z,7.27
2023-05-05T22:45:18.207Z,7.32
2023-05-05T22:47:45.451Z,7.43
2023-05-05T22:50:12.532Z,7.36
2023-05-05T22:52:39.463Z,7.35
2023-05-05T22:55:06.698Z,7.35
2023-05-05T22:57:36.812Z,7.34
2023-05-05T23:00:05.569Z,7.38
2023-05-05T23:02:32.502Z,7.32
2023-05-05T23:04:59.652Z,7.33
2023-05-05T23:07:26.711Z,7.26
2023-05-05T23:09:53.796Z,7.25
2023-05-05T23:12:21.107Z,7.24
2023-05-05T23:14:48.718Z,7.22
2023-05-05T23:17:16.754Z,7.21
2023-05-05T23:19:43.786Z,7.17
2023-05-05T23:22:10.685Z,7.11
2023-05-05T23:24:37.829Z,7.12
2023-05-05T23:27:04.769Z,7.15
2023-05-05T23:29:32.957Z,7.12
2023-05-05T23:31:59.771Z,7.01
2023-05-05T23:34:29.173Z,7.03
2023-05-05T23:36:56.342Z,7.08
2023-05-05T23:39:23.466Z,6.86
2023-05-05T23:41:50.332Z,7.02
2023-05-05T23:44:17.297Z,6.98
2023-05-05T23:46:44.157Z,6.97
2023-05-05T23:49:11.165Z,7.03
2023-05-05T23:51:38.059Z,7.04
2023-05-05T23:54:04.881Z,7.03
2023-05-05T23:56:31.649Z,6.96
2023-05-05T23:58:58.405Z,6.97
